createdAt,value
2018-06-11T00:01:39.610Z,8.43
2018-06-11T00:04:08.047Z,7.47
2018-06-11T00:06:36.408Z,7.08
2018-06-11T00:09:07.493Z,7.35
2018-06-11T00:11:37.112Z,8.60
2018-06-11T00:14:05.728Z,8.18
2018-06-11T00:16:34.243Z,7.37
2018-06-11T00:19:02.621Z,8.58
2018-06-11T00:21:31.002Z,8.58
2018-06-11T00:23:59.421Z,8.78
2018-06-11T00:26:27.817Z,7.15
2018-06-11T00:28:56.323Z,7.47
2018-06-11T00:31:24.743Z,8.43
2018-06-11T00:33:53.236Z,9.45
2018-06-11T00:36:21.720Z,7.83
2018-06-11T00:38:50.094Z,7.47
2018-06-11T00:41:18.489Z,8.18
2018-06-11T00:43:46.888Z,9.00
2018-06-11T00:46:15.292Z,8.05
2018-06-11T00:48:43.676Z,7.60
2018-06-11T00:51:12.109Z,7.92
2018-06-11T00:53:40.502Z,9.18
2018-06-11T00:56:09.897Z,8.93
2018-06-11T00:58:39.216Z,9.03
2018-06-11T01:01:07.665Z,7.62
2018-06-11T01:03:36.101Z,9.55
2018-06-11T01:06:04.243Z,8.70
2018-06-11T01:08:32.624Z,9.63
2018-06-11T01:11:01.076Z,8.95
2018-06-11T01:13:29.559Z,8.35
2018-06-11T01:15:58.059Z,7.42
2018-06-11T01:18:26.461Z,10.30
2018-06-11T01:20:54.880Z,8.20
2018-06-11T01:23:23.314Z,7.80
2018-06-11T01:25:51.739Z,7.90
2018-06-11T01:28:20.131Z,8.80
2018-06-11T01:30:48.710Z,7.83
2018-06-11T01:33:17.128Z,9.15
2018-06-11T01:35:45.555Z,7.85
2018-06-11T01:38:13.972Z,8.95
2018-06-11T01:40:42.366Z,8.70
2018-06-11T01:43:10.743Z,8.50
2018-06-11T01:45:39.182Z,8.83
2018-06-11T01:48:07.578Z,10.15
2018-06-11T01:50:36.021Z,8.75
2018-06-11T01:53:04.392Z,8.18
2018-06-11T01:55:32.549Z,10.32
2018-06-11T01:58:00.953Z,9.63
2018-06-11T02:00:29.405Z,8.98
2018-06-11T02:02:58.808Z,7.67
2018-06-11T02:05:27.212Z,9.78
2018-06-11T02:07:55.625Z,9.88
2018-06-11T02:10:24.037Z,9.38
2018-06-11T02:12:52.471Z,8.80
2018-06-11T02:15:20.887Z,10.08
2018-06-11T02:17:49.288Z,8.85
2018-06-11T02:20:17.674Z,9.03
2018-06-11T02:22:46.152Z,9.58
2018-06-11T02:25:14.571Z,10.55
2018-06-11T02:27:42.961Z,9.73
2018-06-11T02:30:11.375Z,9.98
2018-06-11T02:32:39.789Z,8.05
2018-06-11T02:35:08.214Z,9.23
2018-06-11T02:37:36.653Z,10.13
2018-06-11T02:40:05.059Z,10.32
2018-06-11T02:42:33.541Z,8.78
2018-06-11T02:45:01.943Z,11.40
2018-06-11T02:47:31.290Z,10.03
2018-06-11T02:49:59.756Z,10.13
2018-06-11T02:52:28.172Z,9.63
2018-06-11T02:54:56.541Z,10.15
2018-06-11T02:57:24.912Z,9.08
2018-06-11T02:59:53.293Z,10.75
2018-06-11T03:02:21.736Z,10.38
2018-06-11T03:04:50.227Z,9.95
2018-06-11T03:07:18.654Z,8.98
2018-06-11T03:09:47.038Z,11.00
2018-06-11T03:12:15.415Z,10.85
2018-06-11T03:14:43.847Z,10.85
2018-06-11T03:17:12.289Z,9.48
2018-06-11T03:19:40.700Z,9.58
2018-06-11T03:22:09.035Z,9.13
2018-06-11T03:24:37.428Z,10.03
2018-06-11T03:27:05.839Z,9.85
2018-06-11T03:29:34.329Z,10.72
2018-06-11T03:32:03.023Z,10.63
2018-06-11T03:34:31.458Z,11.05
2018-06-11T03:36:59.903Z,10.65
2018-06-11T03:39:28.308Z,10.25
2018-06-11T03:41:56.714Z,11.03
2018-06-11T03:44:25.116Z,10.08
2018-06-11T03:46:53.553Z,11.22
2018-06-11T03:49:22.049Z,11.22
2018-06-11T03:51:50.476Z,11.85
2018-06-11T03:54:18.906Z,10.63
2018-06-11T03:56:48.085Z,12.53
2018-06-11T03:59:16.543Z,13.13
2018-06-11T04:01:45.041Z,17.32
2018-06-11T04:04:13.476Z,11.85
2018-06-11T04:06:41.862Z,9.85
2018-06-11T04:09:10.260Z,11.78
2018-06-11T04:11:38.701Z,10.70
2018-06-11T04:14:07.112Z,13.40
2018-06-11T04:16:35.484Z,12.25
2018-06-11T04:19:03.937Z,12.93
2018-06-11T04:21:32.346Z,13.28
2018-06-11T04:24:00.753Z,13.43
2018-06-11T04:26:29.307Z,13.15
2018-06-11T04:28:57.741Z,13.38
2018-06-11T04:31:26.168Z,14.70
2018-06-11T04:33:54.550Z,13.45
2018-06-11T04:36:22.979Z,15.90
2018-06-11T04:38:51.365Z,15.80
2018-06-11T04:41:19.884Z,15.10
2018-06-11T04:43:48.345Z,14.07
2018-06-11T04:46:16.814Z,16.02
2018-06-11T04:48:45.258Z,15.55
2018-06-11T04:51:13.686Z,15.88
2018-06-11T04:53:42.157Z,16.65
2018-06-11T04:56:10.614Z,17.00
2018-06-11T04:58:39.053Z,16.93
2018-06-11T05:01:07.460Z,16.62
2018-06-11T05:03:37.322Z,16.62
2018-06-11T05:06:05.765Z,18.35
2018-06-11T05:08:34.234Z,20.32
2018-06-11T05:11:02.695Z,19.40
2018-06-11T05:13:31.234Z,17.50
2018-06-11T05:16:06.346Z,18.60
2018-06-11T05:18:34.738Z,18.67
2018-06-11T05:21:03.209Z,18.70
2018-06-11T05:23:31.661Z,20.17
2018-06-11T05:26:00.132Z,14.60
2018-06-11T05:28:28.538Z,17.02
2018-06-11T05:30:57.072Z,19.00
2018-06-11T05:33:25.493Z,20.10
2018-06-11T05:35:54.042Z,19.87
2018-06-11T05:38:23.377Z,20.77
2018-06-11T05:40:51.848Z,20.20
2018-06-11T05:43:20.306Z,22.05
2018-06-11T05:45:49.336Z,19.35
2018-06-11T05:48:17.844Z,20.97
2018-06-11T05:50:46.355Z,19.60
2018-06-11T05:53:14.837Z,20.50
2018-06-11T05:55:43.338Z,23.45
2018-06-11T05:58:11.780Z,21.95
2018-06-11T06:00:40.208Z,21.37
2018-06-11T06:03:08.709Z,17.67
2018-06-11T06:05:37.165Z,20.43
2018-06-11T06:08:05.640Z,19.17
2018-06-11T06:10:34.110Z,20.00
2018-06-11T06:13:02.896Z,19.70
2018-06-11T06:15:34.187Z,20.32
2018-06-11T06:18:02.720Z,18.40
2018-06-11T06:20:31.165Z,19.27
2018-06-11T06:22:59.587Z,21.50
2018-06-11T06:25:28.081Z,19.05
2018-06-11T06:27:56.480Z,21.82
2018-06-11T06:30:24.957Z,18.42
2018-06-11T06:32:53.388Z,18.60
2018-06-11T06:35:21.556Z,17.62
2018-06-11T06:37:50.216Z,24.30
2018-06-11T06:40:18.682Z,19.02
2018-06-11T06:42:47.068Z,20.48
2018-06-11T06:45:15.445Z,19.55
2018-06-11T06:47:43.914Z,20.85
2018-06-11T06:50:13.254Z,22.37
2018-06-11T06:52:41.699Z,20.60
2018-06-11T06:55:10.113Z,20.43
2018-06-11T06:57:38.598Z,21.10
2018-06-11T07:00:07.079Z,18.57
2018-06-11T07:02:35.525Z,20.50
2018-06-11T07:05:03.989Z,21.85
2018-06-11T07:07:32.450Z,21.77
2018-06-11T07:10:00.887Z,14.47
2018-06-11T07:12:29.406Z,16.90
2018-06-11T07:14:57.808Z,21.20
2018-06-11T07:17:26.209Z,20.68
2018-06-11T07:19:54.649Z,19.70
2018-06-11T07:22:23.116Z,17.35
2018-06-11T07:24:51.644Z,19.40
2018-06-11T07:27:20.093Z,17.57
2018-06-11T07:29:48.556Z,18.10
2018-06-11T07:32:16.987Z,19.35
2018-06-11T07:34:45.480Z,16.42
2018-06-11T07:37:13.850Z,17.65
2018-06-11T07:39:42.340Z,19.50
2018-06-11T07:42:10.802Z,19.23
2018-06-11T07:44:39.188Z,20.70
2018-06-11T07:47:07.601Z,17.73
2018-06-11T07:49:36.009Z,20.05
2018-06-11T07:52:04.502Z,18.55
2018-06-11T07:54:33.023Z,18.37
2018-06-11T07:57:01.495Z,17.85
2018-06-11T07:59:29.959Z,17.35
2018-06-11T08:01:58.990Z,22.13
2018-06-11T08:04:27.397Z,19.67
2018-06-11T08:06:55.894Z,17.27
2018-06-11T08:09:24.416Z,21.20
2018-06-11T08:11:52.916Z,16.65
2018-06-11T08:14:21.425Z,17.52
2018-06-11T08:16:49.978Z,18.77
2018-06-11T08:19:18.485Z,19.92
2018-06-11T08:21:47.568Z,17.80
2018-06-11T08:24:15.984Z,20.62
2018-06-11T08:26:44.401Z,17.77
2018-06-11T08:29:12.892Z,16.12
2018-06-11T08:31:41.469Z,14.85
2018-06-11T08:34:09.949Z,13.15
2018-06-11T08:36:38.491Z,14.83
2018-06-11T08:39:08.674Z,15.10
2018-06-11T08:41:37.109Z,14.35
2018-06-11T08:44:05.572Z,14.38
2018-06-11T08:46:34.203Z,12.98
2018-06-11T08:49:02.660Z,15.48
2018-06-11T08:51:31.799Z,10.98
2018-06-11T08:54:00.270Z,10.55
2018-06-11T08:56:28.743Z,10.50
2018-06-11T08:58:57.195Z,9.50
2018-06-11T09:01:25.658Z,10.82
2018-06-11T09:03:54.160Z,10.30
2018-06-11T09:06:22.560Z,9.98
2018-06-11T09:08:50.969Z,9.60
2018-06-11T09:11:19.353Z,9.48
2018-06-11T09:13:48.019Z,10.13
2018-06-11T09:16:17.017Z,7.87
2018-06-11T09:18:45.473Z,7.33
2018-06-11T09:21:13.845Z,7.28
2018-06-11T09:23:42.364Z,8.58
2018-06-11T09:26:10.791Z,6.97
2018-06-11T09:28:39.242Z,8.25
2018-06-11T09:31:07.740Z,6.83
2018-06-11T09:33:36.132Z,6.20
2018-06-11T09:36:11.165Z,6.83
2018-06-11T09:38:39.850Z,6.92
2018-06-11T09:41:08.378Z,7.58
2018-06-11T09:43:36.740Z,9.73
2018-06-11T09:46:05.144Z,7.00
2018-06-11T09:48:33.594Z,4.90
2018-06-11T09:51:02.115Z,4.50
2018-06-11T09:53:30.634Z,5.58
2018-06-11T09:55:59.026Z,5.30
2018-06-11T09:58:27.470Z,5.10
2018-06-11T10:00:55.911Z,4.50
2018-06-11T10:03:24.454Z,4.40
2018-06-11T10:05:53.113Z,4.92
2018-06-11T10:08:21.601Z,4.20
2018-06-11T10:10:50.138Z,4.37
2018-06-11T10:13:18.536Z,3.27
2018-06-11T10:15:47.000Z,4.40
2018-06-11T10:18:15.376Z,4.87
2018-06-11T10:20:43.852Z,4.10
2018-06-11T10:23:12.441Z,4.08
2018-06-11T10:25:40.892Z,3.95
2018-06-11T10:28:09.335Z,3.65
2018-06-11T10:30:37.740Z,3.72
2018-06-11T10:33:06.161Z,4.03
2018-06-11T10:35:34.580Z,3.47
2018-06-11T10:38:03.094Z,6.53
2018-06-11T10:40:31.509Z,3.77
2018-06-11T10:43:00.120Z,5.00
2018-06-11T10:45:28.645Z,2.80
2018-06-11T10:47:57.063Z,5.12
2018-06-11T10:50:25.480Z,4.08
2018-06-11T10:52:53.940Z,4.67
2018-06-11T10:55:22.467Z,2.70
2018-06-11T10:57:51.913Z,4.90
2018-06-11T11:00:20.364Z,2.25
2018-06-11T11:02:48.777Z,4.17
2018-06-11T11:05:17.212Z,4.80
2018-06-11T11:07:45.583Z,3.25
2018-06-11T11:10:14.093Z,3.42
2018-06-11T11:12:42.532Z,2.87
2018-06-11T11:15:10.984Z,3.35
2018-06-11T11:17:39.397Z,2.60
2018-06-11T11:20:07.884Z,5.03
2018-06-11T11:22:36.377Z,2.45
2018-06-11T11:25:04.953Z,2.35
2018-06-11T11:27:33.463Z,6.62
2018-06-11T11:30:01.894Z,2.27
2018-06-11T11:32:30.373Z,2.70
2018-06-11T11:34:58.812Z,2.00
2018-06-11T11:37:27.603Z,1.82
2018-06-11T11:39:56.080Z,2.60
2018-06-11T11:42:24.551Z,2.00
2018-06-11T11:44:52.959Z,3.10
2018-06-11T11:47:21.452Z,2.17
2018-06-11T11:49:49.897Z,2.50
2018-06-11T11:52:18.340Z,2.30
2018-06-11T11:54:46.753Z,1.82
2018-06-11T11:57:15.019Z,2.42
2018-06-11T11:59:43.422Z,5.08
2018-06-11T12:02:11.828Z,4.62
2018-06-11T12:04:40.330Z,2.60
2018-06-11T12:07:08.837Z,2.33
2018-06-11T12:09:37.307Z,2.47
2018-06-11T12:12:05.751Z,2.33
2018-06-11T12:14:34.151Z,2.17
2018-06-11T12:17:03.681Z,1.92
2018-06-11T12:19:32.122Z,2.70
2018-06-11T12:22:00.650Z,2.55
2018-06-11T12:24:29.053Z,1.90
2018-06-11T12:26:57.491Z,2.33
2018-06-11T12:29:25.954Z,3.10
2018-06-11T12:31:54.425Z,2.22
2018-06-11T12:34:22.883Z,2.25
2018-06-11T12:36:51.327Z,3.83
2018-06-11T12:39:19.757Z,2.45
2018-06-11T12:41:48.188Z,2.10
2018-06-11T12:44:16.712Z,2.10
2018-06-11T12:46:45.157Z,1.72
2018-06-11T12:49:13.632Z,2.40
2018-06-11T12:51:42.136Z,4.65
2018-06-11T12:54:10.569Z,2.40
2018-06-11T12:56:38.963Z,3.77
2018-06-11T12:59:07.409Z,2.35
2018-06-11T13:01:35.887Z,2.37
2018-06-11T13:04:04.372Z,2.60
2018-06-11T13:06:32.773Z,1.90
2018-06-11T13:09:01.292Z,2.00
2018-06-11T13:11:29.789Z,1.98
2018-06-11T13:13:58.658Z,6.03
2018-06-11T13:16:27.084Z,3.15
2018-06-11T13:18:56.069Z,4.42
2018-06-11T13:21:24.543Z,4.95
2018-06-11T13:23:52.938Z,1.82
2018-06-11T13:26:21.328Z,2.60
2018-06-11T13:28:50.394Z,2.10
2018-06-11T13:31:18.856Z,2.20
2018-06-11T13:33:47.358Z,2.25
2018-06-11T13:36:15.892Z,2.58
2018-06-11T13:38:44.459Z,2.65
2018-06-11T13:41:12.824Z,2.35
2018-06-11T13:43:41.302Z,2.10
2018-06-11T13:46:09.840Z,2.10
2018-06-11T13:48:38.257Z,1.82
2018-06-11T13:51:06.786Z,2.17
2018-06-11T13:53:35.341Z,4.45
2018-06-11T13:56:04.064Z,2.10
2018-06-11T13:58:32.428Z,2.27
2018-06-11T14:01:00.852Z,2.45
2018-06-11T14:03:29.280Z,3.90
2018-06-11T14:05:57.702Z,3.22
2018-06-11T14:08:26.097Z,3.02
2018-06-11T14:10:54.593Z,2.50
2018-06-11T14:13:22.968Z,5.80
2018-06-11T14:15:51.777Z,2.55
2018-06-11T14:18:20.281Z,5.87
2018-06-11T14:20:48.715Z,2.72
2018-06-11T14:23:17.140Z,2.00
2018-06-11T14:25:45.569Z,2.20
2018-06-11T14:28:14.041Z,2.98
2018-06-11T14:30:42.451Z,1.87
2018-06-11T14:33:10.861Z,4.25
2018-06-11T14:35:39.317Z,3.58
2018-06-11T14:38:07.768Z,1.50
2018-06-11T14:40:36.237Z,1.60
2018-06-11T14:43:04.661Z,3.37
2018-06-11T14:45:33.148Z,1.82
2018-06-11T14:48:02.825Z,1.77
2018-06-11T14:50:31.274Z,5.22
2018-06-11T14:52:59.667Z,1.52
2018-06-11T14:55:28.048Z,3.27
2018-06-11T14:57:56.476Z,2.20
2018-06-11T15:00:24.859Z,3.50
2018-06-11T15:02:53.315Z,4.65
2018-06-11T15:05:21.969Z,2.08
2018-06-11T15:07:51.409Z,1.72
2018-06-11T15:10:19.846Z,3.25
2018-06-11T15:12:48.275Z,1.80
2018-06-11T15:15:16.723Z,1.85
2018-06-11T15:17:45.246Z,4.08
2018-06-11T15:20:13.680Z,1.75
2018-06-11T15:22:42.128Z,1.42
2018-06-11T15:25:10.520Z,2.05
2018-06-11T15:27:39.027Z,4.72
2018-06-11T15:30:07.537Z,2.37
2018-06-11T15:32:36.292Z,1.82
2018-06-11T15:35:04.893Z,1.80
2018-06-11T15:37:33.468Z,1.70
2018-06-11T15:40:01.888Z,2.45
2018-06-11T15:42:30.380Z,2.05
2018-06-11T15:44:58.838Z,2.65
2018-06-11T15:47:27.356Z,1.90
2018-06-11T15:49:55.767Z,1.80
2018-06-11T15:52:24.276Z,2.00
2018-06-11T15:54:52.731Z,1.47
2018-06-11T15:57:21.268Z,2.05
2018-06-11T15:59:49.739Z,2.00
2018-06-11T16:02:18.185Z,2.55
2018-06-11T16:04:46.587Z,2.58
2018-06-11T16:07:15.018Z,2.33
2018-06-11T16:09:44.141Z,1.98
2018-06-11T16:12:12.635Z,1.87
2018-06-11T16:14:42.044Z,1.87
2018-06-11T16:17:10.608Z,1.82
2018-06-11T16:19:39.014Z,3.70
2018-06-11T16:22:07.268Z,2.67
2018-06-11T16:24:35.669Z,4.83
2018-06-11T16:27:04.208Z,1.40
2018-06-11T16:29:32.626Z,3.75
2018-06-11T16:32:01.023Z,2.58
2018-06-11T16:34:29.516Z,1.60
2018-06-11T16:36:57.953Z,2.33
2018-06-11T16:39:26.619Z,1.60
2018-06-11T16:41:55.089Z,2.60
2018-06-11T16:44:23.482Z,2.12
2018-06-11T16:46:51.879Z,1.75
2018-06-11T16:49:20.312Z,2.87
2018-06-11T16:51:48.775Z,4.92
2018-06-11T16:54:17.242Z,2.35
2018-06-11T16:56:45.416Z,1.98
2018-06-11T16:59:13.864Z,3.42
2018-06-11T17:01:42.243Z,3.42
2018-06-11T17:04:10.728Z,2.42
2018-06-11T17:06:39.109Z,2.27
2018-06-11T17:09:08.710Z,5.75
2018-06-11T17:11:37.620Z,1.90
2018-06-11T17:14:06.078Z,2.67
2018-06-11T17:16:34.553Z,3.72
2018-06-11T17:19:03.015Z,2.47
2018-06-11T17:21:31.438Z,2.02
2018-06-11T17:23:59.981Z,2.45
2018-06-11T17:26:28.390Z,2.00
2018-06-11T17:28:56.902Z,2.20
2018-06-11T17:31:25.270Z,2.55
2018-06-11T17:33:53.761Z,2.55
2018-06-11T17:36:22.171Z,3.95
2018-06-11T17:38:50.895Z,2.52
2018-06-11T17:41:19.298Z,4.67
2018-06-11T17:43:47.773Z,2.12
2018-06-11T17:46:16.228Z,2.67
2018-06-11T17:48:44.658Z,3.05
2018-06-11T17:51:13.129Z,2.00
2018-06-11T17:53:41.526Z,2.30
2018-06-11T17:56:09.964Z,2.08
2018-06-11T17:58:38.460Z,2.80
2018-06-11T18:01:06.894Z,2.55
2018-06-11T18:03:35.456Z,2.37
2018-06-11T18:06:03.981Z,2.62
2018-06-11T18:08:32.483Z,2.70
2018-06-11T18:11:02.087Z,1.72
2018-06-11T18:13:30.509Z,2.30
2018-06-11T18:15:58.997Z,1.52
2018-06-11T18:18:27.436Z,3.15
2018-06-11T18:23:30.583Z,4.45
2018-06-11T18:25:59.032Z,3.17
2018-06-11T18:28:27.515Z,1.65
2018-06-11T18:30:55.952Z,4.20
2018-06-11T18:33:24.372Z,2.08
2018-06-11T18:35:52.882Z,2.47
2018-06-11T18:38:21.562Z,1.42
2018-06-11T18:40:50.077Z,2.08
2018-06-11T18:43:18.725Z,1.90
2018-06-11T18:45:47.159Z,1.98
2018-06-11T18:48:16.455Z,3.27
2018-06-11T18:50:44.903Z,2.47
2018-06-11T18:53:13.416Z,2.87
2018-06-11T18:55:41.867Z,1.62
2018-06-11T18:58:10.395Z,0.95
2018-06-11T19:00:38.865Z,0.90
2018-06-11T19:03:07.303Z,2.80
2018-06-11T19:05:35.763Z,5.35
2018-06-11T19:08:04.214Z,2.17
2018-06-11T19:10:32.738Z,1.32
2018-06-11T19:13:01.241Z,1.95
2018-06-11T19:15:29.638Z,1.12
2018-06-11T19:17:58.070Z,2.58
2018-06-11T19:20:26.622Z,2.02
2018-06-11T19:22:55.056Z,1.98
2018-06-11T19:25:23.552Z,2.50
2018-06-11T19:27:51.901Z,3.33
2018-06-11T19:30:20.373Z,3.62
2018-06-11T19:35:23.614Z,2.10
2018-06-11T19:37:52.119Z,3.75
2018-06-11T19:40:20.542Z,4.53
2018-06-11T19:42:49.206Z,5.62
2018-06-11T19:45:17.588Z,4.92
2018-06-11T19:47:45.975Z,3.92
2018-06-11T19:50:14.568Z,3.47
2018-06-11T19:52:43.073Z,2.20
2018-06-11T19:55:11.529Z,4.25
2018-06-11T19:57:40.671Z,3.98
2018-06-11T20:00:09.164Z,2.77
2018-06-11T20:02:37.607Z,2.98
2018-06-11T20:05:06.043Z,2.00
2018-06-11T20:07:34.443Z,2.45
2018-06-11T20:10:02.872Z,6.42
2018-06-11T20:12:31.287Z,2.67
2018-06-11T20:14:59.698Z,2.27
2018-06-11T20:17:28.135Z,2.15
2018-06-11T20:19:56.515Z,3.87
2018-06-11T20:22:24.921Z,3.47
2018-06-11T20:24:53.316Z,2.80
2018-06-11T20:27:21.809Z,2.83
2018-06-11T20:29:50.211Z,6.28
2018-06-11T20:32:18.768Z,2.98
2018-06-11T20:34:47.151Z,6.90
2018-06-11T20:37:15.575Z,3.22
2018-06-11T20:39:43.956Z,3.83
2018-06-11T20:42:13.420Z,5.37
2018-06-11T20:44:42.010Z,7.37
2018-06-11T20:47:10.841Z,3.02
2018-06-11T20:49:39.696Z,3.98
2018-06-11T20:52:08.143Z,6.12
2018-06-11T20:54:36.931Z,4.37
2018-06-11T20:57:05.416Z,3.62
2018-06-11T20:59:33.804Z,5.65
2018-06-11T21:02:02.251Z,2.25
2018-06-11T21:04:30.680Z,2.25
2018-06-11T21:06:59.081Z,2.98
2018-06-11T21:09:27.532Z,3.55
2018-06-11T21:11:56.907Z,2.30
2018-06-11T21:14:25.364Z,3.60
2018-06-11T21:16:53.813Z,3.70
2018-06-11T21:19:22.258Z,3.70
2018-06-11T21:21:50.659Z,2.02
2018-06-11T21:24:19.956Z,4.62
2018-06-11T21:26:48.502Z,3.95
2018-06-11T21:29:16.919Z,4.03
2018-06-11T21:31:45.326Z,1.82
2018-06-11T21:34:13.762Z,2.65
2018-06-11T21:36:42.148Z,5.28
2018-06-11T21:39:10.575Z,1.90
2018-06-11T21:41:39.081Z,3.25
2018-06-11T21:44:07.681Z,2.85
2018-06-11T21:46:36.160Z,2.12
2018-06-11T21:49:04.619Z,3.72
2018-06-11T21:51:33.107Z,3.85
2018-06-11T21:54:01.523Z,4.40
2018-06-11T21:56:29.997Z,6.25
2018-06-11T21:58:58.578Z,2.98
2018-06-11T22:01:27.067Z,2.72
2018-06-11T22:03:55.623Z,6.00
2018-06-11T22:06:24.016Z,6.78
2018-06-11T22:08:52.467Z,3.17
2018-06-11T22:11:20.837Z,2.87
2018-06-11T22:13:49.287Z,2.83
2018-06-11T22:16:17.702Z,9.05
2018-06-11T22:18:46.096Z,3.30
2018-06-11T22:21:14.467Z,2.55
2018-06-11T22:23:42.895Z,2.60
2018-06-11T22:26:11.317Z,2.35
2018-06-11T22:28:39.721Z,2.33
2018-06-11T22:31:08.149Z,2.55
2018-06-11T22:33:36.751Z,3.42
2018-06-11T22:36:04.901Z,2.67
2018-06-11T22:38:33.292Z,2.80
2018-06-11T22:41:01.709Z,4.03
2018-06-11T22:43:30.073Z,3.37
2018-06-11T22:45:58.517Z,2.50
2018-06-11T22:48:26.880Z,4.08
2018-06-11T22:50:55.265Z,2.72
2018-06-11T22:53:23.649Z,3.37
2018-06-11T22:55:52.056Z,3.62
2018-06-11T22:58:20.492Z,5.03
2018-06-11T23:00:48.896Z,2.83
2018-06-11T23:03:17.376Z,3.67
2018-06-11T23:05:45.801Z,3.52
2018-06-11T23:08:14.218Z,5.75
2018-06-11T23:10:42.614Z,3.58
2018-06-11T23:13:11.044Z,2.70
2018-06-11T23:15:39.530Z,2.45
2018-06-11T23:18:08.042Z,3.08
2018-06-11T23:20:36.478Z,3.47
2018-06-11T23:23:04.933Z,3.95
2018-06-11T23:25:33.360Z,3.40
2018-06-11T23:28:01.772Z,3.22
2018-06-11T23:30:30.279Z,2.67
2018-06-11T23:32:58.723Z,2.67
2018-06-11T23:35:27.151Z,3.10
2018-06-11T23:37:55.697Z,2.85
2018-06-11T23:40:24.102Z,2.65
2018-06-11T23:42:52.653Z,3.90
2018-06-11T23:45:21.041Z,2.52
2018-06-11T23:47:49.476Z,7.35
2018-06-11T23:50:17.955Z,3.05
2018-06-11T23:52:46.427Z,6.50
2018-06-11T23:55:15.466Z,3.17
2018-06-11T23:57:43.885Z,5.80
